Campbellton, Texas
Current Conditions -  °F | °C
As of 8:15 AM on Friday 31 Oct 2014 (Local Time) from KPEZ Reporting Station
Thunderstorm Thunderstorm  
Wind Chill: 65°   Ceiling: 11000
Heat Index: 65°   Visibility: 10mi
Dew Point: 63°   Wind: 3mph
Humidity: 93%   Direction: 10°N
Pressure: 30.2"   Gusts: NA
Location:  28.75°N, 98.3°W
Report Text: KPEZ 311315Z AUTO 01003KT 10SM VCTS SCT050 BKN110 18/17 A3020 RMK AO2 LTG DSNT SE THRU SW T01810170
Loading
Personal Weather Stations






























Interactive Weather Map
Tropical Storm Tracking
New forecast layout! Learn more

10-Day Weather Forecast

Advertisements
Track Severe Weather on mobile